Time;durP1;ratioP1;P1;durP2;ratioP2;P2;SDS_P1;SDS_P2;PMS_P1;PMS_P2;Temp;Humidity;BMP_temperature;BMP_pressure;BME280_temperature;BME280_humidity;BME280_pressure;Samples;Min_cycle;Max_cycle;Signal;HPM_P1;HPM_P2
2023/03/19 00:02:09;;;;;;;25.02;14.90;;;;;;;-144.73;94.00;54374.84;4998774;28;20093;-73
2023/03/19 00:04:35;;;;;;;25.52;15.57;;;;;;;-144.73;94.58;54378.97;5018862;28;20026;-73
2023/03/19 00:07:00;;;;;;;21.02;13.52;;;;;;;-144.73;94.52;54391.28;5016842;28;20046;-73
2023/03/19 00:09:26;;;;;;;26.25;14.40;;;;;;;-144.73;94.26;54374.84;5000798;28;20109;-73
2023/03/19 00:11:51;;;;;;;28.60;15.18;;;;;;;-144.73;94.30;54387.19;5025935;28;20038;-73
2023/03/19 00:14:17;;;;;;;23.77;14.90;;;;;;;-144.73;94.71;54391.28;5016976;28;20044;-73
2023/03/19 00:16:42;;;;;;;26.13;14.57;;;;;;;-144.73;94.65;54395.38;5004312;28;20041;-73
2023/03/19 00:19:08;;;;;;;27.80;14.88;;;;;;;-144.73;95.10;54387.19;4997554;28;20129;-73
2023/03/19 00:21:34;;;;;;;22.38;13.88;;;;;;;-144.73;94.65;54383.06;4986413;28;20031;-73
2023/03/19 00:24:01;;;;;;;22.70;13.68;;;;;;;-144.73;94.81;54415.91;5008581;28;20091;-73
2023/03/19 00:26:31;;;;;;;23.42;15.52;;;;;;;-144.73;94.74;54432.31;4996703;28;20092;-73
2023/03/19 00:28:56;;;;;;;23.05;13.27;;;;;;;-144.73;94.50;54395.38;5011106;28;20029;-73
2023/03/19 00:31:22;;;;;;;22.25;14.25;;;;;;;-144.73;93.83;54378.97;5022178;28;20040;-73
2023/03/19 00:33:48;;;;;;;25.13;14.00;;;;;;;-144.73;94.41;54420.00;5030356;28;20113;-73
2023/03/19 00:36:15;;;;;;;29.23;13.93;;;;;;;-144.73;94.40;54428.22;5016209;28;20031;-73
2023/03/19 00:38:41;;;;;;;23.67;14.10;;;;;;;-144.73;94.60;54381.00;5000990;28;20030;-73
2023/03/19 00:41:06;;;;;;;21.67;13.32;;;;;;;-144.73;94.69;54399.50;5015953;28;20026;-73
2023/03/19 00:43:32;;;;;;;20.08;12.50;;;;;;;-144.73;95.23;54391.28;5023349;28;20112;-73
2023/03/19 00:45:58;;;;;;;26.33;13.07;;;;;;;-144.73;95.50;54415.91;5013102;28;20030;-73
2023/03/19 00:48:23;;;;;;;26.98;13.57;;;;;;;-144.73;96.14;54417.97;5013619;28;20030;-73
2023/03/19 00:50:49;;;;;;;23.88;12.63;;;;;;;-144.73;96.23;54428.22;5011888;28;20290;-73
2023/03/19 00:53:15;;;;;;;22.63;13.43;;;;;;;-144.73;96.04;54391.28;4988155;28;20039;-73
2023/03/19 00:55:40;;;;;;;23.70;15.50;;;;;;;-144.73;96.06;54407.69;5034109;28;20025;-73
2023/03/19 00:58:06;;;;;;;31.80;15.10;;;;;;;-144.73;97.03;54378.97;5008824;28;20037;-73
2023/03/19 01:00:33;;;;;;;22.67;14.85;;;;;;;-144.73;96.37;54407.69;5012602;28;20053;-73
2023/03/19 01:02:58;;;;;;;25.02;15.30;;;;;;;-144.73;96.16;54430.28;4990327;28;20045;-73
2023/03/19 01:05:25;;;;;;;25.42;15.88;;;;;;;-144.73;96.86;54469.28;4986066;28;20026;-73
2023/03/19 01:07:50;;;;;;;21.10;14.15;;;;;;;-144.73;97.22;54436.44;4995920;28;20041;-73
2023/03/19 01:10:17;;;;;;;21.60;14.57;;;;;;;-144.73;96.43;54387.19;5012374;28;20112;-73
2023/03/19 01:12:43;;;;;;;27.63;14.93;;;;;;;-144.73;96.12;54407.69;5011979;28;20112;-71
2023/03/19 01:15:09;;;;;;;34.00;15.70;;;;;;;-144.73;95.96;54420.00;4996523;28;20122;-72
2023/03/19 01:17:34;;;;;;;25.20;14.43;;;;;;;-144.73;95.97;54383.06;4995737;28;20038;-72
2023/03/19 01:20:00;;;;;;;26.98;14.73;;;;;;;-144.73;96.15;54383.06;5014050;28;20471;-72
2023/03/19 01:22:26;;;;;;;26.25;14.82;;;;;;;-144.73;95.77;54415.91;5011704;28;20125;-72
2023/03/19 01:24:51;;;;;;;22.65;14.25;;;;;;;-144.73;95.25;54387.19;5012723;28;20085;-72
2023/03/19 01:27:17;;;;;;;27.27;16.20;;;;;;;-144.73;95.28;54374.84;4998546;28;20154;-72
2023/03/19 01:29:42;;;;;;;21.30;13.38;;;;;;;-144.73;94.97;54428.22;5000296;28;20021;-72
2023/03/19 01:32:08;;;;;;;22.02;14.57;;;;;;;-144.73;94.74;54411.81;5010883;28;20125;-72
2023/03/19 01:34:33;;;;;;;21.45;14.70;;;;;;;-144.73;95.90;54415.91;4976509;28;20030;-72
2023/03/19 01:36:58;;;;;;;21.27;13.40;;;;;;;-144.73;95.76;54391.28;4984317;28;20031;-72
2023/03/19 01:39:25;;;;;;;27.50;14.90;;;;;;;-144.73;95.43;54391.28;4995434;28;20027;-72
2023/03/19 01:41:50;;;;;;;26.13;14.32;;;;;;;-144.73;96.25;54415.91;4997590;28;20041;-72
2023/03/19 01:44:31;;;;;;;20.25;13.68;;;;;;;-144.73;96.22;54424.13;4976138;28;20030;-71
2023/03/19 01:47:00;;;;;;;23.50;14.23;;;;;;;-144.73;95.61;54399.50;5014776;28;20030;-71
2023/03/19 01:49:27;;;;;;;24.80;15.20;;;;;;;-144.73;94.76;54383.06;5012220;28;20490;-72
2023/03/19 01:51:54;;;;;;;20.10;13.80;;;;;;;-144.73;94.70;54407.69;5012736;28;20107;-74
2023/03/19 01:54:22;;;;;;;20.23;13.40;;;;;;;-144.73;94.64;54415.91;5004901;28;20045;-74
2023/03/19 01:56:52;;;;;;;25.23;14.88;;;;;;;-144.73;94.84;54422.06;4996074;28;20165;-71
2023/03/19 01:59:22;;;;;;;25.33;15.25;;;;;;;-144.73;94.78;54397.44;4997321;28;20026;-72
2023/03/19 02:02:22;;;;;;;25.35;15.30;;;;;;;-144.73;94.74;54409.75;4996532;28;20562;-72
2023/03/19 02:04:55;;;;;;;24.95;16.27;;;;;;;-144.73;94.15;54424.13;4981648;28;20026;-72
2023/03/19 02:07:21;;;;;;;21.55;13.95;;;;;;;-144.73;94.05;54440.53;4991712;28;20039;-72
2023/03/19 02:09:46;;;;;;;25.65;15.43;;;;;;;-144.73;94.38;54387.19;5003983;28;20029;-72
2023/03/19 02:12:12;;;;;;;21.35;13.90;;;;;;;-144.73;94.38;54440.53;5001813;28;20033;-72
2023/03/19 02:14:37;;;;;;;24.73;15.52;;;;;;;-144.73;94.78;54411.81;5012329;28;20032;-72
2023/03/19 02:17:03;;;;;;;27.27;15.07;;;;;;;-144.73;94.93;54383.06;5000669;28;20037;-72
2023/03/19 02:19:43;;;;;;;22.15;14.68;;;;;;;-144.73;95.30;54383.06;5005456;28;20026;-72
2023/03/19 02:22:11;;;;;;;21.30;13.23;;;;;;;-144.73;96.10;54391.28;5021876;28;20040;-72
2023/03/19 02:24:44;;;;;;;23.75;13.25;;;;;;;-144.73;96.92;54395.38;5014654;28;20029;-72
2023/03/19 02:27:09;;;;;;;26.50;16.40;;;;;;;-144.73;97.50;54432.31;5016630;28;20036;-72
2023/03/19 02:29:34;;;;;;;22.85;13.65;;;;;;;-144.73;97.21;54387.19;4995125;28;20109;-72
2023/03/19 02:32:02;;;;;;;23.42;14.23;;;;;;;-144.73;96.83;54432.31;5008580;28;20061;-72
2023/03/19 02:34:39;;;;;;;19.65;12.00;;;;;;;-144.73;96.19;54430.28;5003174;28;20451;-72
2023/03/19 02:37:25;;;;;;;28.58;11.98;;;;;;;-144.73;96.54;54393.34;5005137;28;20061;-72
2023/03/19 02:39:57;;;;;;;22.55;14.00;;;;;;;-144.73;96.98;54362.53;5012711;28;20026;-72
2023/03/19 02:42:25;;;;;;;;;;;;;;;-144.73;96.18;54436.44;4987197;28;20045;-72
2023/03/19 02:44:50;;;;;;;24.58;13.95;;;;;;;-144.73;96.15;54407.69;5026735;28;19913;-72
2023/03/19 02:47:16;;;;;;;20.92;13.75;;;;;;;-144.73;95.99;54407.69;4994167;28;20048;-72
2023/03/19 02:49:42;;;;;;;18.73;12.55;;;;;;;-144.73;95.72;54391.28;5009433;28;20026;-72
2023/03/19 02:52:08;;;;;;;21.20;13.35;;;;;;;-144.73;96.29;54358.44;4988516;28;20034;-72
2023/03/19 02:54:33;;;;;;;21.58;12.18;;;;;;;-144.73;96.04;54374.84;4994987;28;20083;-72
2023/03/19 02:56:58;;;;;;;19.60;13.10;;;;;;;-144.73;95.82;54407.69;5010368;28;20037;-72
2023/03/19 02:59:24;;;;;;;15.63;11.43;;;;;;;-144.73;95.30;54395.38;5028734;28;20041;-72
2023/03/19 03:01:49;;;;;;;20.65;12.70;;;;;;;-144.73;97.09;54420.00;5013733;28;20092;-72
2023/03/19 03:04:15;;;;;;;25.10;12.15;;;;;;;-144.73;97.39;54374.84;4998554;28;20030;-72
2023/03/19 03:06:42;;;;;;;16.02;11.80;;;;;;;-144.73;96.96;54415.91;4983677;28;20109;-72
2023/03/19 03:09:08;;;;;;;20.35;12.45;;;;;;;-144.73;96.40;54391.28;4991985;28;20017;-72
2023/03/19 03:11:33;;;;;;;18.90;11.85;;;;;;;-144.73;96.04;54440.53;5013701;28;20049;-72
2023/03/19 03:13:59;;;;;;;18.52;11.70;;;;;;;-144.73;95.69;54452.84;5013182;28;20060;-72
2023/03/19 03:16:24;;;;;;;17.95;10.73;;;;;;;-144.73;95.58;54391.28;5013537;28;20025;-72
2023/03/19 03:18:50;;;;;;;18.88;13.10;;;;;;;-144.73;95.27;54420.00;5010781;28;20034;-72
2023/03/19 03:21:18;;;;;;;21.40;12.55;;;;;;;-144.73;95.22;54436.44;5010179;28;20026;-72
2023/03/19 03:23:44;;;;;;;18.48;13.05;;;;;;;-144.73;95.26;54434.38;4991453;28;20061;-71
2023/03/19 03:26:11;;;;;;;24.92;12.88;;;;;;;-144.73;95.49;54407.69;4991455;28;20053;-71
2023/03/19 03:28:36;;;;;;;21.92;13.80;;;;;;;-144.73;95.90;54452.84;4991010;28;20026;-73
2023/03/19 03:31:02;;;;;;;16.55;11.77;;;;;;;-144.73;95.99;54366.66;4974555;28;20037;-74
2023/03/19 03:33:46;;;;;;;20.45;12.65;;;;;;;-144.73;95.69;54407.69;5012718;23;20105;-71
2023/03/19 03:36:12;;;;;;;17.50;12.13;;;;;;;-144.73;96.18;54413.84;4970221;28;20084;-71
2023/03/19 03:38:38;;;;;;;16.42;11.90;;;;;;;-144.73;96.11;54362.53;4988231;28;20068;-71
2023/03/19 03:41:04;;;;;;;20.40;11.07;;;;;;;-144.73;96.56;54383.06;4987115;28;20099;-71
2023/03/19 03:43:30;;;;;;;21.40;13.60;;;;;;;-144.73;96.67;54424.13;4984880;28;20034;-71
2023/03/19 03:45:55;;;;;;;22.15;12.73;;;;;;;-144.73;96.66;54387.19;4984411;28;20022;-70
2023/03/19 03:48:21;;;;;;;19.83;13.00;;;;;;;-144.73;96.84;54399.50;4973158;28;20054;-71
2023/03/19 03:50:46;;;;;;;23.20;13.05;;;;;;;-144.73;96.91;54407.69;4987656;28;20035;-71
2023/03/19 03:53:13;;;;;;;16.80;10.75;;;;;;;-144.73;97.39;54432.31;4968666;28;20038;-70
2023/03/19 03:55:39;;;;;;;16.25;10.48;;;;;;;-144.73;97.54;54444.66;4989823;28;20022;-69
2023/03/19 03:58:05;;;;;;;21.00;10.75;;;;;;;-144.73;98.03;54436.44;4984809;28;20031;-69
2023/03/19 04:00:30;;;;;;;19.35;12.65;;;;;;;-144.73;98.46;54387.19;4988087;28;20037;-69
2023/03/19 04:02:56;;;;;;;19.80;12.15;;;;;;;-144.73;98.82;54366.66;4973558;28;20045;-71
2023/03/19 04:05:22;;;;;;;27.23;15.18;;;;;;;-144.73;99.15;54374.84;4974178;28;20467;-71
2023/03/19 04:07:47;;;;;;;26.38;14.63;;;;;;;-144.73;98.72;54407.69;4990744;28;20090;-72
2023/03/19 04:10:14;;;;;;;18.23;11.25;;;;;;;-144.73;97.58;54407.69;4974052;28;20058;-71
2023/03/19 04:12:40;;;;;;;20.30;11.23;;;;;;;-144.73;97.04;54395.38;4965440;28;20063;-71
2023/03/19 04:15:07;;;;;;;17.58;11.15;;;;;;;-144.73;96.60;54391.28;4990094;28;20058;-71
2023/03/19 04:17:34;;;;;;;19.67;12.18;;;;;;;-144.73;96.54;54387.19;4972890;28;20037;-71
2023/03/19 04:20:00;;;;;;;18.98;12.73;;;;;;;-144.73;96.35;54387.19;4965902;28;20026;-72
2023/03/19 04:22:26;;;;;;;20.65;12.07;;;;;;;-144.73;96.75;54407.69;4989457;28;20038;-71
2023/03/19 04:24:54;;;;;;;17.02;11.60;;;;;;;-144.73;97.26;54407.69;4971342;28;20031;-71
2023/03/19 04:27:20;;;;;;;16.00;10.30;;;;;;;-144.73;98.41;54407.69;4972616;28;20035;-70
2023/03/19 04:29:45;;;;;;;26.02;11.07;;;;;;;-144.73;99.27;54411.81;4977343;28;20045;-69
2023/03/19 04:32:11;;;;;;;14.45;10.05;;;;;;;-144.73;99.37;54389.22;4971019;28;20567;-70
2023/03/19 04:34:36;;;;;;;15.52;9.20;;;;;;;-144.73;99.40;54378.97;4982865;28;20053;-71
2023/03/19 04:37:02;;;;;;;14.57;8.75;;;;;;;-144.73;99.05;54428.22;4976662;28;20043;-70
2023/03/19 04:39:27;;;;;;;13.40;9.38;;;;;;;-144.73;99.16;54444.66;4977434;28;20034;-71
2023/03/19 04:41:53;;;;;;;15.30;10.70;;;;;;;-144.73;98.48;54411.81;4984657;28;20042;-70
2023/03/19 04:44:18;;;;;;;17.58;11.65;;;;;;;-144.73;98.75;54395.38;4977053;28;20395;-70
2023/03/19 04:46:44;;;;;;;23.80;12.45;;;;;;;-144.73;99.47;54358.44;4973078;28;20126;-70
2023/03/19 04:49:11;;;;;;;21.98;12.30;;;;;;;-144.73;99.70;54387.19;4981927;28;20118;-70
2023/03/19 04:51:36;;;;;;;19.50;12.50;;;;;;;-144.73;99.51;54411.81;4974376;28;20491;-70
2023/03/19 04:54:02;;;;;;;19.67;11.43;;;;;;;-144.73;99.22;54420.00;4964819;28;20073;-71
2023/03/19 04:56:28;;;;;;;18.15;10.98;;;;;;;-144.73;99.03;54407.69;4972997;28;20062;-70
2023/03/19 04:58:53;;;;;;;19.15;10.95;;;;;;;-144.73;99.53;54420.00;4991048;28;20085;-70
2023/03/19 05:01:19;;;;;;;16.90;10.60;;;;;;;-144.73;99.96;54411.81;4989041;28;20030;-70
2023/03/19 05:03:45;;;;;;;15.55;10.65;;;;;;;-144.73;100.00;54444.66;4977176;28;20029;-71
2023/03/19 05:06:11;;;;;;;15.35;9.55;;;;;;;-144.73;100.00;54424.13;4968472;28;20029;-71
2023/03/19 05:08:36;;;;;;;17.65;11.35;;;;;;;-144.73;100.00;54436.44;4960748;28;20022;-72
2023/03/19 05:11:02;;;;;;;18.48;11.13;;;;;;;-144.73;100.00;54407.69;4971737;28;20026;-70
2023/03/19 05:13:27;;;;;;;15.75;10.52;;;;;;;-144.73;100.00;54424.13;4992636;28;20041;-71
2023/03/19 05:15:54;;;;;;;20.85;11.93;;;;;;;-144.73;100.00;54411.81;4989944;28;20078;-71
2023/03/19 05:18:19;;;;;;;14.65;10.18;;;;;;;-144.73;100.00;54424.13;4982459;28;20047;-71
2023/03/19 05:20:45;;;;;;;17.23;10.85;;;;;;;-144.73;100.00;54399.50;4967111;28;20030;-70
2023/03/19 05:23:10;;;;;;;21.15;9.60;;;;;;;-144.73;100.00;54387.19;4976506;28;20034;-70
2023/03/19 05:25:35;;;;;;;17.25;12.00;;;;;;;-144.73;100.00;54407.69;4993609;28;20528;-71
2023/03/19 05:28:02;;;;;;;18.92;11.63;;;;;;;-144.73;100.00;54378.97;4992312;28;20030;-70
2023/03/19 05:30:28;;;;;;;25.77;12.43;;;;;;;-144.73;100.00;54428.22;4986941;28;20039;-71
2023/03/19 05:32:57;;;;;;;16.27;11.00;;;;;;;-144.73;100.00;54411.81;4972633;28;20031;-70
2023/03/19 05:35:23;;;;;;;19.02;11.13;;;;;;;-144.73;100.00;54415.91;4963567;28;20026;-70
2023/03/19 05:37:48;;;;;;;15.98;11.52;;;;;;;-144.73;100.00;54436.44;4991195;28;20038;-70
2023/03/19 05:40:15;;;;;;;18.33;11.25;;;;;;;-144.73;100.00;54407.69;4986743;28;20023;-70
2023/03/19 05:42:41;;;;;;;24.63;13.77;;;;;;;-144.73;100.00;54428.22;4973414;28;20037;-71
2023/03/19 05:45:06;;;;;;;20.27;12.85;;;;;;;-144.73;100.00;54407.69;4971971;28;20022;-71
2023/03/19 05:47:33;;;;;;;16.60;11.25;;;;;;;-144.73;100.00;54407.69;4989198;28;20030;-71
2023/03/19 05:49:58;;;;;;;30.25;15.52;;;;;;;-144.73;100.00;54407.69;4976087;28;20030;-71
2023/03/19 05:52:23;;;;;;;26.65;15.38;;;;;;;-144.73;100.00;54440.53;4992867;28;20042;-70
2023/03/19 05:54:49;;;;;;;21.88;13.65;;;;;;;-144.73;100.00;54391.28;4976366;28;20034;-71
2023/03/19 05:57:15;;;;;;;27.95;16.63;;;;;;;-144.73;100.00;54387.19;4975250;28;20578;-70
2023/03/19 05:59:41;;;;;;;27.98;14.38;;;;;;;-144.73;100.00;54354.34;4975244;28;20030;-70
2023/03/19 06:02:06;;;;;;;29.42;15.52;;;;;;;-144.73;100.00;54411.81;4960597;28;20038;-70
2023/03/19 06:04:32;;;;;;;24.15;13.38;;;;;;;-144.73;100.00;54411.81;4991989;28;20483;-71
2023/03/19 06:06:57;;;;;;;28.75;14.32;;;;;;;-144.73;100.00;54395.38;4972323;28;20077;-71
2023/03/19 06:09:22;;;;;;;21.50;14.25;;;;;;;-144.73;100.00;54432.31;4956618;28;20048;-70
2023/03/19 06:11:48;;;;;;;21.90;14.73;;;;;;;-144.73;100.00;54434.38;4963721;28;20030;-69
2023/03/19 06:14:13;;;;;;;22.55;13.73;;;;;;;-144.73;100.00;54438.50;4964725;28;20036;-70
2023/03/19 06:16:39;;;;;;;20.05;14.05;;;;;;;-144.73;100.00;54432.31;4974418;28;20033;-70
2023/03/19 06:19:04;;;;;;;22.00;12.98;;;;;;;-144.73;100.00;54407.69;4979960;28;20034;-70
2023/03/19 06:21:30;;;;;;;25.35;13.77;;;;;;;-144.73;100.00;54424.13;4963368;28;20058;-71
2023/03/19 06:23:56;;;;;;;22.50;13.00;;;;;;;-144.73;100.00;54424.13;4965013;28;20111;-70
2023/03/19 06:26:22;;;;;;;23.77;14.68;;;;;;;-144.73;100.00;54399.50;4963315;28;20026;-70
2023/03/19 06:28:47;;;;;;;17.45;12.55;;;;;;;-144.73;100.00;54407.69;4956357;28;20396;-70
2023/03/19 06:31:13;;;;;;;21.33;13.73;;;;;;;-144.73;100.00;54407.69;4963255;28;20045;-69
2023/03/19 06:33:38;;;;;;;21.75;12.70;;;;;;;-144.73;100.00;54407.69;4972616;28;20027;-70
2023/03/19 06:36:04;;;;;;;21.80;13.93;;;;;;;-144.73;100.00;54407.69;4973675;28;20033;-70
2023/03/19 06:38:30;;;;;;;17.88;12.60;;;;;;;-144.73;100.00;54395.38;4975378;28;20022;-69
2023/03/19 06:40:55;;;;;;;23.60;12.10;;;;;;;-144.73;100.00;54432.31;4960107;28;20034;-70
2023/03/19 06:43:21;;;;;;;18.35;12.43;;;;;;;-144.73;100.00;54424.13;4992549;28;20038;-70
2023/03/19 06:45:46;;;;;;;20.15;12.25;;;;;;;-144.73;100.00;54436.44;4982878;28;20073;-70
2023/03/19 06:48:12;;;;;;;17.40;12.90;;;;;;;-144.73;100.00;54413.84;4967901;28;20038;-69
2023/03/19 06:50:37;;;;;;;19.30;12.25;;;;;;;-144.73;100.00;54424.13;4992420;28;20085;-70
2023/03/19 06:53:03;;;;;;;19.83;11.77;;;;;;;-144.73;100.00;54387.19;4963482;28;20113;-70
2023/03/19 06:55:29;;;;;;;21.10;11.75;;;;;;;-144.73;100.00;54448.75;4969216;28;20061;-70
2023/03/19 06:57:55;;;;;;;21.23;12.27;;;;;;;-144.73;100.00;54407.69;4990658;28;20034;-70
2023/03/19 07:00:21;;;;;;;19.00;11.90;;;;;;;-144.73;100.00;54456.97;4961368;28;20026;-70
2023/03/19 07:02:46;;;;;;;24.02;13.13;;;;;;;-144.73;100.00;54436.44;4988419;28;20093;-71
2023/03/19 07:05:12;;;;;;;19.40;12.20;;;;;;;-144.73;99.65;54444.66;4986679;28;20085;-71
2023/03/19 07:07:37;;;;;;;20.20;11.65;;;;;;;-144.73;99.58;54432.31;4988882;28;20034;-71
2023/03/19 07:10:03;;;;;;;18.58;10.45;;;;;;;-144.73;99.19;54424.13;4960940;28;20057;-71
2023/03/19 07:12:28;;;;;;;14.43;11.15;;;;;;;-144.73;99.19;54413.84;4974324;28;20042;-70
2023/03/19 07:14:57;;;;;;;15.50;11.13;;;;;;;-144.73;99.00;54428.22;4982229;28;20089;-71
2023/03/19 07:17:24;;;;;;;16.65;11.63;;;;;;;-144.73;99.04;54372.81;4973195;28;20049;-70
2023/03/19 07:19:50;;;;;;;18.10;11.90;;;;;;;-144.73;98.57;54420.00;4989058;28;20037;-71
2023/03/19 07:22:15;;;;;;;17.58;10.82;;;;;;;-144.73;97.82;54411.81;4957898;28;20038;-71
2023/03/19 07:24:41;;;;;;;17.90;10.52;;;;;;;-144.73;97.59;54411.81;4966199;28;20034;-71
2023/03/19 07:27:06;;;;;;;15.02;10.15;;;;;;;-144.73;96.60;54395.38;4970652;28;20027;-71
2023/03/19 07:29:31;;;;;;;17.90;10.43;;;;;;;-144.73;96.53;54440.53;4970574;28;20031;-71
2023/03/19 07:31:57;;;;;;;22.42;11.18;;;;;;;-144.73;96.66;54436.44;4974532;28;20069;-72
2023/03/19 07:34:22;;;;;;;13.60;9.63;;;;;;;-144.73;95.44;54432.31;4974566;28;20080;-70
2023/03/19 07:36:48;;;;;;;12.70;9.50;;;;;;;-144.73;94.71;54436.44;4963309;28;20050;-71
2023/03/19 07:39:13;;;;;;;21.25;10.30;;;;;;;-144.73;94.26;54415.91;4969130;28;20494;-71
2023/03/19 07:41:39;;;;;;;11.90;8.98;;;;;;;-144.73;94.10;54420.00;4980988;28;20398;-68
2023/03/19 07:44:05;;;;;;;12.98;9.35;;;;;;;-144.73;92.94;54432.31;4981525;28;20071;-69
2023/03/19 07:46:31;;;;;;;12.95;9.35;;;;;;;-144.73;91.74;54415.91;4974930;28;20027;-69
2023/03/19 07:48:56;;;;;;;14.38;8.15;;;;;;;-144.73;90.30;54409.75;4991476;28;20029;-68
2023/03/19 07:51:21;;;;;;;13.65;8.65;;;;;;;-144.73;88.95;54442.59;4973514;28;20054;-69
2023/03/19 07:53:47;;;;;;;19.55;8.43;;;;;;;-144.73;88.96;54407.69;4973422;28;20026;-69
2023/03/19 07:56:13;;;;;;;10.57;8.02;;;;;;;-144.73;88.66;54374.84;4986728;28;20081;-69
2023/03/19 07:58:39;;;;;;;14.80;7.47;;;;;;;-144.73;87.41;54413.84;4982336;28;20472;-68
2023/03/19 08:01:05;;;;;;;15.93;7.63;;;;;;;-144.73;88.08;54415.91;4992933;28;20026;-70
2023/03/19 08:03:32;;;;;;;12.57;7.63;;;;;;;-144.73;87.35;54411.81;4987096;28;20018;-67
2023/03/19 08:05:58;;;;;;;11.57;7.70;;;;;;;-144.73;86.69;54415.91;4977280;28;20121;-67
2023/03/19 08:08:23;;;;;;;10.80;6.68;;;;;;;-144.73;86.51;54461.06;4983360;28;20113;-68
2023/03/19 08:10:49;;;;;;;12.65;7.53;;;;;;;-144.73;85.65;54395.38;4963479;28;20034;-68
2023/03/19 08:13:15;;;;;;;13.63;7.05;;;;;;;-144.73;84.96;54432.31;4959032;28;20045;-68
2023/03/19 08:15:40;;;;;;;9.38;6.80;;;;;;;-144.73;85.28;54432.31;4967065;28;20019;-68
2023/03/19 08:18:06;;;;;;;10.68;6.97;;;;;;;-144.73;84.60;54407.69;4960234;28;20034;-68
2023/03/19 08:20:32;;;;;;;10.57;6.35;;;;;;;-144.73;84.37;54452.84;4975674;28;20024;-68
2023/03/19 08:22:57;;;;;;;9.02;6.70;;;;;;;-144.73;83.96;54415.91;4963291;28;20091;-69
2023/03/19 08:25:23;;;;;;;11.50;6.38;;;;;;;-144.73;83.78;54452.84;4972141;28;20117;-69
2023/03/19 08:27:49;;;;;;;10.55;6.82;;;;;;;-144.73;83.11;54428.22;4966804;28;20034;-69
2023/03/19 08:30:15;;;;;;;9.18;6.13;;;;;;;-144.73;83.70;54438.50;4969210;28;20100;-69
2023/03/19 08:32:43;;;;;;;13.32;7.00;;;;;;;-144.73;82.85;54448.75;4967072;28;20081;-68
2023/03/19 08:35:10;;;;;;;15.73;6.10;;;;;;;-144.73;83.20;54399.50;4959334;28;20038;-69
2023/03/19 08:37:35;;;;;;;13.73;7.28;;;;;;;-144.73;83.90;54432.31;4973736;28;20034;-69
2023/03/19 08:40:00;;;;;;;10.93;6.40;;;;;;;-144.73;82.98;54424.13;4963741;28;20026;-69
2023/03/19 08:42:27;;;;;;;14.18;6.68;;;;;;;-144.73;83.81;54444.66;4955603;28;20030;-69
2023/03/19 08:44:53;;;;;;;13.05;6.65;;;;;;;-144.73;84.10;54436.44;4968884;28;20029;-69
2023/03/19 08:47:19;;;;;;;11.80;6.72;;;;;;;-144.73;83.78;54387.19;4979516;28;20122;-69
2023/03/19 08:49:45;;;;;;;11.05;6.35;;;;;;;-144.73;83.85;54407.69;4957920;28;20085;-69
2023/03/19 08:52:10;;;;;;;13.60;6.75;;;;;;;-144.73;82.75;54378.97;4958840;28;20026;-69
2023/03/19 08:54:36;;;;;;;14.75;7.47;;;;;;;-144.73;82.54;54387.19;4957168;28;20014;-68
2023/03/19 08:57:01;;;;;;;9.80;6.43;;;;;;;-144.73;81.74;54424.13;4982731;28;20061;-69
2023/03/19 08:59:27;;;;;;;12.90;6.22;;;;;;;-144.73;81.51;54391.28;4964109;28;20441;-69
2023/03/19 09:01:53;;;;;;;16.40;6.43;;;;;;;-144.73;79.81;54440.53;4966590;28;20030;-69
2023/03/19 09:04:20;;;;;;;13.27;6.28;;;;;;;-144.73;78.21;54413.84;4970066;28;20034;-70
2023/03/19 09:06:50;;;;;;;12.68;6.40;;;;;;;-144.73;78.44;54420.00;4972189;28;20023;-70
2023/03/19 09:09:19;;;;;;;9.70;5.70;;;;;;;-144.73;78.98;54368.69;4959046;28;20027;-67
2023/03/19 09:11:45;;;;;;;6.55;4.60;;;;;;;-144.73;76.87;54395.38;4980378;28;20034;-69
2023/03/19 09:14:12;;;;;;;10.32;5.18;;;;;;;-144.73;76.69;54461.06;4984418;28;20027;-68
2023/03/19 09:16:38;;;;;;;12.68;5.80;;;;;;;-144.73;75.80;54378.97;4963997;28;20106;-70
2023/03/19 09:19:04;;;;;;;7.57;5.22;;;;;;;-144.73;77.86;54420.00;4977623;28;20045;-70
2023/03/19 09:21:29;;;;;;;9.55;4.15;;;;;;;-144.73;75.88;54411.81;4974888;28;20031;-70
2023/03/19 09:23:54;;;;;;;10.75;4.95;;;;;;;-144.73;77.16;54383.06;4963369;28;20125;-69
2023/03/19 09:26:20;;;;;;;11.65;4.75;;;;;;;-144.73;75.95;54415.91;4959607;28;20022;-69
2023/03/19 09:28:46;;;;;;;7.60;4.47;;;;;;;-144.73;75.48;54411.81;4969935;28;20162;-68
2023/03/19 09:31:11;;;;;;;6.43;4.40;;;;;;;-144.73;74.22;54387.19;4972849;28;20046;-68
2023/03/19 09:33:36;;;;;;;10.23;4.60;;;;;;;-144.73;73.72;54407.69;4965405;28;20070;-69
2023/03/19 09:36:02;;;;;;;8.15;4.47;;;;;;;-144.73;74.41;54370.75;4960514;28;20026;-68
2023/03/19 09:38:28;;;;;;;9.15;5.20;;;;;;;-144.73;72.15;54407.69;4963483;28;20039;-69
2023/03/19 09:41:11;;;;;;;8.80;3.97;;;;;;;-144.73;72.49;54370.75;4960285;28;20026;-69
2023/03/19 09:43:41;;;;;;;10.18;5.13;;;;;;;-144.73;73.18;54415.91;4968343;28;20031;-69
2023/03/19 09:46:16;;;;;;;11.85;4.20;;;;;;;-144.73;72.93;54407.69;4975272;28;20038;-69
2023/03/19 09:48:54;;;;;;;6.43;3.78;;;;;;;-144.73;70.94;54407.69;4958544;28;20030;-68
2023/03/19 09:51:39;;;;;;;5.03;3.58;;;;;;;-144.73;71.44;54391.28;4963728;28;20384;-69
2023/03/19 09:54:38;;;;;;;5.70;3.45;;;;;;;-144.73;70.49;54399.50;4968074;28;20097;-69
2023/03/19 09:57:03;;;;;;;6.60;3.35;;;;;;;-144.73;71.52;54411.81;4965690;28;20061;-68
2023/03/19 09:59:29;;;;;;;9.70;3.90;;;;;;;-144.73;70.78;54415.91;4962826;28;20109;-69
2023/03/19 10:02:15;;;;;;;9.18;4.10;;;;;;;-144.73;69.24;54329.72;4964051;28;20037;-69
2023/03/19 10:05:07;;;;;;;8.07;4.15;;;;;;;-144.73;69.52;54370.75;4959900;28;20105;-70
2023/03/19 10:07:59;;;;;;;6.03;3.88;;;;;;;-144.73;67.86;54424.13;4975058;28;20031;-70
2023/03/19 10:10:43;;;;;;;;;;;;;;;-144.73;68.36;54362.53;4976221;28;20495;-70
2023/03/19 10:13:25;;;;;;;8.35;4.30;;;;;;;-144.73;69.15;54387.19;4978498;28;19961;-69
2023/03/19 10:15:51;;;;;;;;;;;;;;;-144.73;69.93;54395.38;5016363;23;20053;-71
2023/03/19 10:18:38;;;;;;;12.80;4.65;;;;;;;-144.73;69.96;54428.22;5000414;28;19933;-72
2023/03/19 10:21:18;;;;;;;8.52;4.22;;;;;;;-144.73;67.67;54420.00;4997860;28;20437;-72
2023/03/19 10:23:51;;;;;;;9.35;4.65;;;;;;;-144.73;66.78;54399.50;4997039;28;20034;-72
2023/03/19 10:26:20;;;;;;;8.52;4.05;;;;;;;-144.73;66.64;54383.06;4979728;28;20061;-72
2023/03/19 10:29:01;;;;;;;7.93;4.00;;;;;;;-144.73;66.73;54415.91;4996304;28;20042;-72
2023/03/19 10:31:48;;;;;;;12.18;5.07;;;;;;;-144.73;66.41;54358.44;4978047;28;20425;-72
2023/03/19 10:34:32;;;;;;;6.03;4.20;;;;;;;-144.73;65.62;54321.50;4971849;28;20040;-72
2023/03/19 10:37:13;;;;;;;10.30;4.78;;;;;;;-144.73;65.07;54391.28;4975559;28;20033;-72
2023/03/19 10:39:41;;;;;;;8.87;4.27;;;;;;;-144.73;64.53;54393.34;5002799;28;20070;-72
2023/03/19 10:43:04;;;;;;;7.80;4.03;;;;;;;-144.73;63.76;54370.75;4984102;28;20265;-72
2023/03/19 10:45:36;;;;;;;8.00;4.15;;;;;;;-144.73;62.68;54350.22;4943075;29;20027;-72
2023/03/19 10:48:03;;;;;;;8.10;4.60;;;;;;;-144.73;60.28;54366.66;4924040;29;20039;-72
2023/03/19 10:50:50;;;;;;;7.07;4.07;;;;;;;-144.73;63.15;54329.72;4962845;28;20120;-72
2023/03/19 10:53:15;;;;;;;8.57;4.13;;;;;;;-144.73;61.13;54366.66;4990045;28;20073;-72
2023/03/19 10:55:49;;;;;;;5.32;2.88;;;;;;;-144.73;59.64;54362.53;5001183;28;20119;-72
2023/03/19 10:58:18;;;;;;;10.70;3.83;;;;;;;-144.73;60.77;54415.91;4987606;28;20021;-73
2023/03/19 11:00:48;;;;;;;8.73;3.78;;;;;;;-144.73;59.07;54358.44;4993054;28;20018;-74
2023/03/19 11:03:33;;;;;;;13.68;4.07;;;;;;;-144.73;59.96;54370.75;4999383;28;20026;-74
2023/03/19 11:06:23;;;;;;;6.13;2.83;;;;;;;-144.73;58.25;54333.81;5003989;28;20053;-72
2023/03/19 11:08:56;;;;;;;9.32;3.85;;;;;;;-144.73;58.20;54391.28;4990261;28;20034;-72